Time;durP1;ratioP1;P1;durP2;ratioP2;P2;SDS_P1;SDS_P2;PMS_P1;PMS_P2;Temp;Humidity;BMP_temperature;BMP_pressure;BME280_temperature;BME280_humidity;BME280_pressure;Samples;Min_cycle;Max_cycle;Signal;HPM_P1;HPM_P2
2021/07/06 00:05:00;;;;;;;8.73;4.63;;;21.40;70.70;;;;;;10413197;28;20036;-64
2021/07/06 00:10:01;;;;;;;7.53;5.38;;;21.50;70.70;;;;;;10416409;28;20025;-63
2021/07/06 00:15:05;;;;;;;6.00;4.20;;;21.50;70.80;;;;;;10420195;28;20040;-63
2021/07/06 00:20:11;;;;;;;8.38;5.13;;;21.50;70.70;;;;;;10426180;28;20130;-64
2021/07/06 00:25:12;;;;;;;6.18;4.00;;;21.40;70.70;;;;;;10419787;28;20108;-63
2021/07/06 00:30:14;;;;;;;6.07;4.45;;;21.50;70.80;;;;;;10419668;28;20044;-63
2021/07/06 00:41:33;;;;;;;7.78;4.78;;;21.50;70.60;;;;;;10410256;28;20050;-64
2021/07/06 00:46:34;;;;;;;7.68;4.75;;;21.50;70.60;;;;;;10414626;28;20030;-64
2021/07/06 00:51:35;;;;;;;7.70;4.72;;;21.40;70.50;;;;;;10419199;28;20120;-63
2021/07/06 00:56:36;;;;;;;7.75;4.30;;;21.50;70.60;;;;;;10418443;28;20033;-64
2021/07/06 01:01:37;;;;;;;8.43;4.78;;;21.40;70.60;;;;;;10407028;28;20433;-63
2021/07/06 01:06:37;;;;;;;6.68;4.55;;;21.40;70.70;;;;;;10418480;28;20064;-63
2021/07/06 01:11:38;;;;;;;6.50;4.53;;;21.40;70.80;;;;;;10418106;28;20109;-63
2021/07/06 01:16:45;;;;;;;7.32;3.72;;;21.40;70.80;;;;;;10417870;28;20076;-64
2021/07/06 01:21:46;;;;;;;9.00;4.68;;;21.40;70.70;;;;;;10422299;28;20377;-64
2021/07/06 01:26:52;;;;;;;5.50;4.07;;;21.40;70.80;;;;;;10416007;28;20045;-63
2021/07/06 01:31:53;;;;;;;5.10;3.85;;;21.40;70.80;;;;;;10416932;28;20604;-64
2021/07/06 01:36:55;;;;;;;6.53;3.92;;;21.40;71.00;;;;;;10417377;28;20156;-64
2021/07/06 01:41:56;;;;;;;6.78;4.10;;;21.40;71.10;;;;;;10416502;28;20064;-64
2021/07/06 01:46:57;;;;;;;7.60;4.45;;;21.40;71.00;;;;;;10416843;28;20026;-64
2021/07/06 01:51:58;;;;;;;5.35;3.00;;;21.40;71.20;;;;;;10416284;28;20035;-63
2021/07/06 01:56:58;;;;;;;5.55;3.88;;;21.40;71.10;;;;;;10415981;28;20037;-64
2021/07/06 02:01:59;;;;;;;5.57;3.55;;;21.40;71.10;;;;;;10416074;28;20549;-64
2021/07/06 02:07:00;;;;;;;5.25;3.38;;;21.40;71.10;;;;;;10415954;28;20519;-63
2021/07/06 02:12:01;;;;;;;5.22;3.20;;;21.40;71.10;;;;;;10415749;28;20067;-63
2021/07/06 02:17:02;;;;;;;5.88;3.90;;;21.40;72.20;;;;;;10415516;28;20025;-64
2021/07/06 02:22:03;;;;;;;5.43;3.60;;;21.40;74.10;;;;;;10423898;28;20504;-63
2021/07/06 02:27:03;;;;;;;6.35;3.40;;;21.50;74.70;;;;;;10414967;28;20129;-63
2021/07/06 02:32:05;;;;;;;5.93;3.65;;;21.50;74.80;;;;;;10414299;28;20036;-63
2021/07/06 02:37:05;;;;;;;6.50;4.05;;;21.50;74.60;;;;;;10415080;28;20036;-64
2021/07/06 02:42:06;;;;;;;3.88;2.95;;;21.50;74.40;;;;;;10414425;28;20045;-64
2021/07/06 02:47:08;;;;;;;4.55;3.28;;;21.50;74.10;;;;;;10415116;28;20420;-64
2021/07/06 02:52:08;;;;;;;6.20;3.55;;;21.50;73.90;;;;;;10414476;28;20061;-64
2021/07/06 02:57:10;;;;;;;3.70;2.75;;;21.50;73.90;;;;;;10414638;28;20107;-64
2021/07/06 03:02:11;;;;;;;5.40;3.15;;;21.50;73.70;;;;;;10405265;28;20072;-63
2021/07/06 03:07:11;;;;;;;4.60;2.78;;;21.50;73.50;;;;;;10413854;28;20061;-64
2021/07/06 03:12:12;;;;;;;3.72;2.50;;;21.50;73.20;;;;;;10412741;28;20072;-64
2021/07/06 03:17:12;;;;;;;3.08;2.30;;;21.50;73.20;;;;;;10413902;28;20465;-64
2021/07/06 03:22:13;;;;;;;4.35;2.50;;;21.50;73.00;;;;;;10420952;28;20083;-64
2021/07/06 03:27:14;;;;;;;3.58;2.50;;;21.50;73.00;;;;;;10413595;28;20048;-64
2021/07/06 03:32:15;;;;;;;4.38;1.98;;;21.40;72.90;;;;;;10411381;28;20037;-64
2021/07/06 03:37:15;;;;;;;4.03;2.55;;;21.40;72.60;;;;;;10414831;28;20037;-64
2021/07/06 03:42:16;;;;;;;4.00;2.50;;;21.40;72.60;;;;;;10414196;28;20049;-64
2021/07/06 03:47:17;;;;;;;5.63;2.92;;;21.40;72.10;;;;;;10420007;28;20430;-64
2021/07/06 03:52:17;;;;;;;3.08;2.47;;;21.40;72.20;;;;;;10421282;28;20151;-64
2021/07/06 03:57:28;;;;;;;4.60;2.53;;;21.40;72.40;;;;;;10420796;28;20060;-64
2021/07/06 04:02:29;;;;;;;3.33;2.60;;;21.40;72.30;;;;;;10417650;28;20064;-64
2021/07/06 04:07:29;;;;;;;3.17;1.70;;;21.40;72.20;;;;;;10420147;28;20061;-63
2021/07/06 04:12:30;;;;;;;2.45;1.95;;;21.40;72.00;;;;;;10420549;28;20021;-64
2021/07/06 04:17:31;;;;;;;3.60;2.08;;;21.40;72.10;;;;;;10420086;28;20037;-64
2021/07/06 04:22:31;;;;;;;3.40;2.25;;;21.40;72.20;;;;;;10429493;28;20048;-63
2021/07/06 04:27:32;;;;;;;3.33;2.47;;;21.40;72.00;;;;;;10419261;28;20033;-63
2021/07/06 04:32:34;;;;;;;4.07;2.10;;;21.40;72.20;;;;;;10419273;28;20033;-64
2021/07/06 04:37:34;;;;;;;4.03;2.45;;;21.40;72.10;;;;;;10417661;28;20518;-63
2021/07/06 04:42:35;;;;;;;2.47;1.70;;;21.40;72.20;;;;;;10405503;28;20107;-63
2021/07/06 04:47:36;;;;;;;3.85;2.40;;;21.40;72.10;;;;;;10405766;28;20083;-64
2021/07/06 04:52:37;;;;;;;3.08;1.80;;;21.40;72.20;;;;;;10418763;28;20021;-65
2021/07/06 04:57:38;;;;;;;3.67;2.03;;;21.40;72.10;;;;;;10416683;28;20035;-66
2021/07/06 05:02:39;;;;;;;4.45;1.98;;;21.40;72.50;;;;;;10416093;28;20053;-64
2021/07/06 05:07:40;;;;;;;3.67;2.05;;;21.40;73.20;;;;;;10416920;28;20496;-62
2021/07/06 05:12:40;;;;;;;3.88;2.25;;;21.40;73.20;;;;;;10415226;28;20037;-63
2021/07/06 05:17:41;;;;;;;7.15;2.05;;;21.50;73.40;;;;;;10417948;28;20030;-64
2021/07/06 05:22:43;;;;;;;6.15;2.28;;;21.50;73.60;;;;;;10426478;28;20032;-65
2021/07/06 05:27:44;;;;;;;9.73;2.58;;;21.50;73.60;;;;;;10416834;28;20036;-64
2021/07/06 05:32:45;;;;;;;7.82;2.50;;;21.50;73.60;;;;;;10416761;28;20051;-61
2021/07/06 05:37:45;;;;;;;9.10;2.65;;;21.50;73.50;;;;;;10415922;28;20445;-62
2021/07/06 05:42:46;;;;;;;12.02;2.80;;;21.50;73.50;;;;;;10413107;28;20037;-61
2021/07/06 05:47:47;;;;;;;9.05;2.47;;;21.50;73.50;;;;;;10415340;28;20083;-64
2021/07/06 05:52:47;;;;;;;5.57;2.85;;;21.50;73.70;;;;;;10428939;28;20100;-64
2021/07/06 05:57:48;;;;;;;8.70;2.47;;;21.50;73.60;;;;;;10415319;28;20068;-63
2021/07/06 06:02:49;;;;;;;8.30;4.10;;;21.50;73.40;;;;;;10415154;28;20048;-62
2021/07/06 06:07:50;;;;;;;6.57;2.60;;;21.50;73.10;;;;;;10413836;28;20025;-62
2021/07/06 06:12:50;;;;;;;10.90;3.35;;;21.50;73.10;;;;;;10415396;28;20044;-65
2021/07/06 06:17:51;;;;;;;11.85;2.67;;;21.50;73.20;;;;;;10400633;28;20112;-64
2021/07/06 06:22:52;;;;;;;9.18;2.17;;;21.50;73.50;;;;;;10411295;28;20432;-67
2021/07/06 06:27:52;;;;;;;7.88;2.65;;;21.50;73.70;;;;;;10389957;28;20048;-62
2021/07/06 06:32:55;;;;;;;9.07;2.20;;;21.50;73.50;;;;;;10227925;28;20029;-59
2021/07/06 06:37:56;;;;;;;6.68;1.75;;;21.50;73.60;;;;;;10268943;28;20486;-64
2021/07/06 06:42:56;;;;;;;7.78;2.20;;;21.50;73.70;;;;;;10402682;28;20055;-65
2021/07/06 06:47:59;;;;;;;6.07;2.00;;;21.50;73.70;;;;;;10393200;28;20344;-63
2021/07/06 06:52:59;;;;;;;8.23;2.45;;;21.50;73.70;;;;;;10409915;28;20037;-64
2021/07/06 06:58:00;;;;;;;5.50;2.55;;;21.40;73.60;;;;;;10412463;28;20041;-63
2021/07/06 07:03:01;;;;;;;4.43;2.22;;;21.40;73.70;;;;;;10410933;28;20057;-64
2021/07/06 07:08:02;;;;;;;11.43;2.88;;;21.40;73.80;;;;;;10413549;28;20187;-59
2021/07/06 07:13:03;;;;;;;6.07;2.30;;;21.40;73.80;;;;;;10409368;28;20032;-59
2021/07/06 07:18:03;;;;;;;9.43;2.53;;;21.50;73.80;;;;;;10415863;28;20040;-59
2021/07/06 07:23:04;;;;;;;4.13;1.88;;;21.50;73.80;;;;;;10431669;28;20512;-58
2021/07/06 07:28:05;;;;;;;6.07;2.10;;;21.50;73.90;;;;;;10419889;28;20037;-59
2021/07/06 07:33:06;;;;;;;5.25;2.50;;;21.50;73.90;;;;;;10421276;28;20034;-58
2021/07/06 07:38:06;;;;;;;5.55;2.05;;;21.50;73.80;;;;;;10421164;28;20040;-59
2021/07/06 07:43:07;;;;;;;8.57;2.17;;;21.50;73.80;;;;;;10420937;28;20050;-58
2021/07/06 07:48:08;;;;;;;4.13;2.10;;;21.50;73.80;;;;;;10420656;28;20056;-58
2021/07/06 07:53:08;;;;;;;5.28;3.20;;;21.50;73.80;;;;;;10420747;28;20437;-59
2021/07/06 07:58:09;;;;;;;3.45;1.33;;;21.50;73.80;;;;;;10420800;28;20057;-58
2021/07/06 08:03:10;;;;;;;5.95;2.28;;;21.50;73.60;;;;;;10418473;28;20087;-58
2021/07/06 08:08:10;;;;;;;4.25;2.28;;;21.40;73.50;;;;;;10418929;28;20056;-58
2021/07/06 08:13:11;;;;;;;4.85;1.83;;;21.50;73.50;;;;;;10417914;28;20546;-59
2021/07/06 08:18:12;;;;;;;3.50;1.55;;;21.50;73.40;;;;;;10419127;28;20072;-59
2021/07/06 08:23:13;;;;;;;5.03;1.77;;;21.40;73.30;;;;;;10420687;28;20033;-58
2021/07/06 08:28:14;;;;;;;2.85;1.33;;;21.50;73.10;;;;;;10413364;28;20037;-58
2021/07/06 08:33:14;;;;;;;2.03;1.48;;;21.50;73.20;;;;;;10412816;28;20048;-59
2021/07/06 08:38:16;;;;;;;6.63;1.95;;;21.50;72.90;;;;;;10418089;28;20064;-58
2021/07/06 08:43:18;;;;;;;3.00;1.40;;;21.40;72.80;;;;;;10417988;28;20448;-58
2021/07/06 08:48:21;;;;;;;3.47;1.67;;;21.50;72.70;;;;;;10418069;28;20024;-58
2021/07/06 08:53:22;;;;;;;1.83;1.13;;;21.50;72.90;;;;;;10412884;28;20482;-59
2021/07/06 08:58:22;;;;;;;3.47;1.40;;;21.50;72.90;;;;;;10417845;28;20108;-59
2021/07/06 09:03:23;;;;;;;3.35;1.70;;;21.50;72.80;;;;;;10417942;28;20116;-58
2021/07/06 09:08:29;;;;;;;2.20;1.23;;;21.50;72.80;;;;;;10418198;28;20036;-58
2021/07/06 09:13:31;;;;;;;3.53;1.60;;;21.50;72.70;;;;;;10418209;28;20041;-58
2021/07/06 09:18:34;;;;;;;3.42;1.98;;;21.50;72.70;;;;;;10417086;28;20097;-58
2021/07/06 09:23:43;;;;;;;1.90;1.10;;;21.50;72.60;;;;;;10425862;28;20405;-59
2021/07/06 09:28:46;;;;;;;2.42;1.50;;;21.50;72.60;;;;;;10418014;28;20026;-58
2021/07/06 09:34:01;;;;;;;2.88;1.20;;;21.40;72.50;;;;;;10404162;28;20490;-59
2021/07/06 09:39:24;;;;;;;2.28;1.23;;;21.50;72.50;;;;;;10417373;28;20044;-58
2021/07/06 09:44:36;;;;;;;2.58;1.20;;;21.40;72.40;;;;;;10415556;28;20026;-57
2021/07/06 09:49:54;;;;;;;2.40;1.20;;;21.50;72.30;;;;;;10416119;28;20041;-59
2021/07/06 09:54:54;;;;;;;2.15;1.40;;;21.50;72.00;;;;;;10416096;28;20036;-59
2021/07/06 10:00:15;;;;;;;3.85;1.83;;;21.50;71.80;;;;;;10415901;28;20068;-58
2021/07/06 10:05:20;;;;;;;2.72;1.40;;;21.50;71.90;;;;;;10416002;28;20401;-58
2021/07/06 10:10:21;;;;;;;2.78;1.35;;;21.50;71.70;;;;;;10415280;28;20025;-59
2021/07/06 10:15:24;;;;;;;1.67;1.15;;;21.50;71.80;;;;;;10415020;28;20052;-59
2021/07/06 10:20:28;;;;;;;2.95;1.20;;;21.50;71.60;;;;;;10424249;28;20037;-59
2021/07/06 10:25:35;;;;;;;3.38;2.08;;;21.50;71.40;;;;;;10414775;28;20029;-58
2021/07/06 10:30:44;;;;;;;4.53;1.40;;;21.50;71.30;;;;;;10412173;28;20033;-58
2021/07/06 10:35:48;;;;;;;5.35;1.50;;;21.60;71.30;;;;;;10406547;28;20059;-59
2021/07/06 10:40:49;;;;;;;2.35;1.33;;;21.60;71.10;;;;;;10404958;28;20509;-58
2021/07/06 10:45:50;;;;;;;4.82;1.50;;;21.60;71.00;;;;;;10409332;28;20394;-58
2021/07/06 10:50:51;;;;;;;4.55;1.40;;;21.60;70.80;;;;;;10396134;28;20029;-58
2021/07/06 10:56:08;;;;;;;2.40;1.25;;;21.60;70.90;;;;;;10410752;28;20492;-58
2021/07/06 11:01:08;;;;;;;8.05;1.83;;;21.60;70.70;;;;;;10412099;28;20034;-57
2021/07/06 11:06:43;;;;;;;5.82;1.67;;;21.60;70.90;;;;;;10412606;28;20401;-58
2021/07/06 11:11:44;;;;;;;2.63;1.27;;;21.70;70.80;;;;;;10413813;28;20367;-58
2021/07/06 11:17:03;;;;;;;5.03;1.70;;;21.60;70.70;;;;;;10413744;28;20362;-58
2021/07/06 11:22:16;;;;;;;3.67;1.42;;;21.60;70.70;;;;;;10423642;28;20033;-57
2021/07/06 11:27:59;;;;;;;2.90;1.45;;;21.60;70.60;;;;;;10413512;28;20135;-57
2021/07/06 11:33:09;;;;;;;5.75;1.13;;;21.70;70.50;;;;;;10412951;28;20036;-57
2021/07/06 11:38:20;;;;;;;2.53;1.08;;;21.70;70.30;;;;;;10412950;28;20065;-58
2021/07/06 11:43:22;;;;;;;2.80;1.20;;;21.70;70.20;;;;;;10404139;28;20073;-58
2021/07/06 11:48:26;;;;;;;7.90;1.60;;;21.70;71.20;;;;;;10412150;28;20437;-57
2021/07/06 11:53:38;;;;;;;4.38;1.55;;;21.70;70.40;;;;;;10407227;28;20378;-58
2021/07/06 11:58:39;;;;;;;4.38;1.50;;;21.70;70.50;;;;;;10411713;28;20121;-58
2021/07/06 12:03:41;;;;;;;3.80;1.80;;;21.70;70.50;;;;;;10414336;28;20413;-58
2021/07/06 12:08:44;;;;;;;3.60;1.20;;;21.70;70.20;;;;;;10418924;28;20508;-57
2021/07/06 12:13:50;;;;;;;8.45;2.35;;;21.70;70.10;;;;;;10419663;28;20033;-57
2021/07/06 12:19:00;;;;;;;13.30;3.10;;;21.80;70.80;;;;;;10409308;28;20529;-56
2021/07/06 12:24:06;;;;;;;11.18;4.13;;;21.80;70.70;;;;;;10409437;28;20438;-57
2021/07/06 12:29:07;;;;;;;22.35;3.63;;;21.80;70.10;;;;;;10417118;28;20450;-59
2021/07/06 12:34:17;;;;;;;16.77;3.70;;;21.80;70.80;;;;;;10419306;28;20056;-60
2021/07/06 12:39:34;;;;;;;;;;;21.80;70.70;;;;;;10418293;28;20056;-57
2021/07/06 12:44:38;;;;;;;11.40;3.03;;;21.80;70.90;;;;;;10418199;28;19939;-59
2021/07/06 12:50:13;;;;;;;19.33;3.17;;;21.80;71.00;;;;;;10409350;28;20104;-58
2021/07/06 12:55:26;;;;;;;11.65;3.30;;;21.80;70.70;;;;;;10417394;28;20026;-58
2021/07/06 13:00:28;;;;;;;10.43;2.90;;;21.80;70.30;;;;;;10403106;28;20032;-58
2021/07/06 13:05:34;;;;;;;11.90;2.65;;;21.80;70.20;;;;;;10418580;28;20112;-58
2021/07/06 13:10:37;;;;;;;8.13;2.47;;;21.80;69.30;;;;;;10416652;28;20037;-58
2021/07/06 13:15:46;;;;;;;8.65;1.90;;;21.80;69.00;;;;;;10417105;28;20041;-58
2021/07/06 13:20:50;;;;;;;12.70;2.20;;;21.70;68.80;;;;;;10419024;28;20120;-58
2021/07/06 13:25:50;;;;;;;7.25;2.28;;;21.80;68.80;;;;;;10417402;28;20036;-58
2021/07/06 13:30:54;;;;;;;4.25;1.80;;;21.70;68.70;;;;;;10413782;28;20043;-58
2021/07/06 13:35:57;;;;;;;6.22;1.92;;;21.70;68.70;;;;;;10416067;28;20029;-59
2021/07/06 13:41:00;;;;;;;6.32;2.58;;;21.70;68.70;;;;;;10414867;28;20486;-57
2021/07/06 13:46:02;;;;;;;9.60;1.95;;;21.70;68.50;;;;;;10415837;28;20437;-57
2021/07/06 13:51:03;;;;;;;8.38;2.60;;;21.80;69.20;;;;;;10406732;28;20120;-57
2021/07/06 13:56:04;;;;;;;9.30;2.85;;;21.80;69.30;;;;;;10401958;28;20041;-58
2021/07/06 14:01:08;;;;;;;11.68;2.53;;;21.80;69.30;;;;;;10415839;28;20029;-58
2021/07/06 14:06:08;;;;;;;5.53;2.58;;;21.80;69.40;;;;;;10408800;28;20363;-58
2021/07/06 14:11:09;;;;;;;7.35;2.33;;;21.80;69.00;;;;;;10414335;28;20037;-58
2021/07/06 14:16:10;;;;;;;9.95;2.92;;;21.80;69.00;;;;;;10414466;28;20031;-58
2021/07/06 14:21:10;;;;;;;10.77;3.47;;;21.80;69.10;;;;;;10416563;28;20057;-58
2021/07/06 14:26:11;;;;;;;6.93;2.83;;;21.80;69.70;;;;;;10412918;28;20076;-58
2021/07/06 14:31:12;;;;;;;11.23;2.33;;;21.90;69.50;;;;;;10412661;28;20112;-60
2021/07/06 14:36:12;;;;;;;7.10;2.42;;;21.90;69.50;;;;;;10415202;28;20026;-59
2021/07/06 14:41:15;;;;;;;10.40;2.25;;;21.90;69.40;;;;;;10413552;28;20041;-60
2021/07/06 14:46:15;;;;;;;9.68;3.00;;;21.80;68.50;;;;;;10413285;28;20072;-59
2021/07/06 14:51:16;;;;;;;7.45;2.78;;;21.90;69.30;;;;;;10412030;28;20061;-58
2021/07/06 14:56:17;;;;;;;6.25;2.13;;;21.90;68.70;;;;;;10396380;28;20437;-60
2021/07/06 15:01:18;;;;;;;9.93;2.63;;;21.90;68.50;;;;;;10401550;28;20116;-59
2021/07/06 15:06:18;;;;;;;5.20;1.50;;;21.90;67.70;;;;;;10411796;28;20094;-59
2021/07/06 15:11:19;;;;;;;5.25;1.80;;;21.80;67.00;;;;;;10402263;28;20104;-59
2021/07/06 15:16:20;;;;;;;3.78;1.50;;;21.80;65.90;;;;;;10411996;28;20107;-59
2021/07/06 15:21:21;;;;;;;2.20;1.38;;;21.80;65.50;;;;;;10407566;28;20084;-59
2021/07/06 15:26:21;;;;;;;5.70;1.92;;;21.80;65.40;;;;;;10411498;28;20041;-59
2021/07/06 15:31:22;;;;;;;4.60;1.33;;;21.70;65.10;;;;;;10412739;28;20029;-59
2021/07/06 15:36:23;;;;;;;2.75;1.40;;;21.70;64.80;;;;;;10413810;28;20393;-59
2021/07/06 15:41:24;;;;;;;3.33;2.08;;;21.70;64.50;;;;;;10417546;28;20054;-54
2021/07/06 15:46:24;;;;;;;6.75;2.30;;;21.70;65.00;;;;;;10419063;28;20073;-56
2021/07/06 15:51:25;;;;;;;11.18;2.38;;;21.70;66.50;;;;;;10413269;28;20442;-56
2021/07/06 15:56:26;;;;;;;9.88;2.33;;;21.80;67.30;;;;;;10419542;28;20025;-57
2021/07/06 16:01:26;;;;;;;9.75;2.55;;;21.80;67.80;;;;;;10414145;28;20057;-56
2021/07/06 16:06:27;;;;;;;12.40;3.42;;;21.80;69.60;;;;;;10423688;28;20034;-56
2021/07/06 16:11:28;;;;;;;13.07;2.72;;;21.90;70.30;;;;;;10405609;28;20371;-56
2021/07/06 16:16:29;;;;;;;8.98;2.38;;;21.90;70.60;;;;;;10420207;28;20026;-58
2021/07/06 16:21:30;;;;;;;9.65;2.13;;;21.90;70.40;;;;;;10420858;28;20033;-59
2021/07/06 16:26:33;;;;;;;11.82;2.78;;;21.90;70.40;;;;;;10407111;28;20057;-57
2021/07/06 16:31:34;;;;;;;9.73;2.55;;;21.90;70.20;;;;;;10416435;28;20033;-58
2021/07/06 16:36:34;;;;;;;8.57;1.95;;;21.90;70.30;;;;;;10417435;28;20033;-58
2021/07/06 16:41:36;;;;;;;11.55;2.97;;;21.90;70.30;;;;;;10415280;28;20048;-59
2021/07/06 16:46:37;;;;;;;16.70;3.65;;;21.90;70.30;;;;;;10416717;28;20029;-58
2021/07/06 17:20:01;;;;;;;;;;;21.90;70.10;;;;;;10433601;28;20113;-58
2021/07/06 18:06:43;;;;;;;4.45;1.70;;;21.90;70.20;;;;;;10394485;28;20041;-58
2021/07/06 18:11:44;;;;;;;12.00;2.40;;;21.90;70.40;;;;;;10413959;28;20057;-57
2021/07/06 18:16:45;;;;;;;6.75;1.95;;;21.90;70.40;;;;;;10408144;28;20101;-57
2021/07/06 18:21:45;;;;;;;8.63;2.97;;;21.90;70.50;;;;;;10412483;28;20053;-56
2021/07/06 18:26:46;;;;;;;12.35;2.25;;;21.90;70.80;;;;;;10411529;28;20025;-55
2021/07/06 18:31:49;;;;;;;7.90;2.35;;;21.90;70.80;;;;;;10414883;28;20052;-57
2021/07/06 18:36:50;;;;;;;8.68;2.03;;;21.90;70.80;;;;;;10414387;28;20033;-57
2021/07/06 18:41:50;;;;;;;5.55;1.63;;;21.90;70.90;;;;;;10414028;28;20417;-53
2021/07/06 18:46:51;;;;;;;6.13;2.13;;;21.90;70.90;;;;;;10413296;28;20124;-53
2021/07/06 18:51:55;;;;;;;8.07;2.15;;;21.90;71.10;;;;;;10413523;28;20477;-55
2021/07/06 18:56:58;;;;;;;5.43;2.28;;;21.90;70.90;;;;;;10413361;28;20040;-57
2021/07/06 19:01:58;;;;;;;6.47;1.92;;;21.90;71.10;;;;;;10413678;28;20036;-55
2021/07/06 19:06:59;;;;;;;8.07;2.30;;;21.90;71.20;;;;;;10408242;28;20367;-55
2021/07/06 19:12:01;;;;;;;8.55;1.67;;;21.90;71.20;;;;;;10412014;28;20031;-56
2021/07/06 19:17:03;;;;;;;9.00;2.20;;;21.90;71.20;;;;;;10415862;28;20091;-57
2021/07/06 19:22:04;;;;;;;5.40;1.95;;;21.90;71.30;;;;;;10405102;28;20068;-57
2021/07/06 19:27:12;;;;;;;5.75;1.42;;;21.90;71.20;;;;;;10409956;28;20033;-56
2021/07/06 19:32:14;;;;;;;5.95;2.05;;;21.90;71.30;;;;;;10411051;28;20036;-57
2021/07/06 19:37:14;;;;;;;5.03;1.40;;;21.90;71.20;;;;;;10405434;28;20034;-57
2021/07/06 19:42:15;;;;;;;4.78;1.58;;;21.90;71.20;;;;;;10408742;28;20050;-57
2021/07/06 19:47:18;;;;;;;6.50;1.60;;;21.90;71.10;;;;;;10389489;28;20072;-54
2021/07/06 19:52:19;;;;;;;5.38;1.40;;;21.90;71.10;;;;;;10403745;28;20091;-56
2021/07/06 19:57:20;;;;;;;9.85;4.13;;;21.90;71.10;;;;;;10405959;28;20064;-56
2021/07/06 20:02:21;;;;;;;9.10;2.55;;;21.90;71.10;;;;;;10418629;28;20037;-56
2021/07/06 20:07:25;;;;;;;4.65;1.73;;;21.90;71.10;;;;;;10417090;28;20045;-56
2021/07/06 20:12:26;;;;;;;3.83;1.30;;;21.90;71.20;;;;;;10420064;28;20025;-55
2021/07/06 20:17:26;;;;;;;3.80;1.65;;;21.80;71.20;;;;;;10404499;28;20638;-56
2021/07/06 20:22:27;;;;;;;3.10;1.35;;;21.90;71.30;;;;;;10425781;28;20061;-56
2021/07/06 20:27:28;;;;;;;3.10;1.58;;;21.80;71.30;;;;;;10414883;28;20127;-56
2021/07/06 20:32:29;;;;;;;5.40;1.50;;;21.80;71.20;;;;;;10416583;28;20022;-56
2021/07/06 20:37:29;;;;;;;4.93;1.17;;;21.80;71.10;;;;;;10417326;28;20107;-55
2021/07/06 20:42:30;;;;;;;5.25;2.35;;;21.80;70.90;;;;;;10418840;28;20514;-57
2021/07/06 20:47:31;;;;;;;5.65;2.00;;;21.80;70.90;;;;;;10417591;28;20482;-55
2021/07/06 20:52:32;;;;;;;4.35;1.30;;;21.80;70.80;;;;;;10418988;28;20427;-56
2021/07/06 20:57:33;;;;;;;4.53;1.55;;;21.80;70.70;;;;;;10415155;28;20065;-54
2021/07/06 21:02:33;;;;;;;4.38;1.30;;;21.80;70.70;;;;;;10418904;28;20104;-56
2021/07/06 21:07:34;;;;;;;5.28;1.23;;;21.80;70.70;;;;;;10404781;28;20124;-57
2021/07/06 21:12:35;;;;;;;4.63;1.25;;;21.80;70.70;;;;;;10416574;28;20025;-56
2021/07/06 21:17:36;;;;;;;2.58;1.20;;;21.80;70.80;;;;;;10417734;28;20033;-55
2021/07/06 21:22:38;;;;;;;5.47;1.30;;;21.80;70.70;;;;;;10422366;28;20036;-53
2021/07/06 21:27:39;;;;;;;6.63;1.55;;;21.80;70.60;;;;;;10417804;28;20119;-55
2021/07/06 21:32:40;;;;;;;2.90;1.15;;;21.70;70.50;;;;;;10413715;28;20017;-54
2021/07/06 21:37:40;;;;;;;3.45;1.77;;;21.70;70.60;;;;;;10416551;28;20068;-53
2021/07/06 21:42:41;;;;;;;3.28;1.02;;;21.70;70.60;;;;;;10417233;28;20499;-55
2021/07/06 21:47:42;;;;;;;3.08;1.27;;;21.70;70.50;;;;;;10402657;28;20035;-56
2021/07/06 21:52:43;;;;;;;3.35;1.27;;;21.70;70.50;;;;;;10416834;28;20049;-55
2021/07/06 21:57:43;;;;;;;2.20;1.25;;;21.70;70.60;;;;;;10402166;28;20044;-55
2021/07/06 22:02:44;;;;;;;3.78;1.45;;;21.70;70.60;;;;;;10416116;28;20094;-56
2021/07/06 22:07:45;;;;;;;3.42;1.20;;;21.70;70.60;;;;;;10415400;28;20175;-56
2021/07/06 22:12:45;;;;;;;2.42;1.08;;;21.70;70.70;;;;;;10416128;28;20436;-56
2021/07/06 22:17:46;;;;;;;2.90;1.15;;;21.70;70.60;;;;;;10415388;28;20456;-54
2021/07/06 22:22:47;;;;;;;2.45;1.40;;;21.70;71.20;;;;;;10407351;28;20075;-54
2021/07/06 22:27:48;;;;;;;2.03;1.10;;;21.70;70.60;;;;;;10414936;28;20033;-55
2021/07/06 22:32:49;;;;;;;2.22;1.35;;;21.70;70.60;;;;;;10412487;28;20041;-56
2021/07/06 22:37:50;;;;;;;1.98;0.77;;;21.60;70.60;;;;;;10400803;28;20040;-56
2021/07/06 22:42:50;;;;;;;2.03;0.95;;;21.70;70.60;;;;;;10414320;28;20073;-56
2021/07/06 22:47:51;;;;;;;2.28;1.35;;;21.60;70.60;;;;;;10413617;28;20044;-56
2021/07/06 22:52:52;;;;;;;1.92;0.88;;;21.60;71.20;;;;;;10400603;28;20453;-54
2021/07/06 22:57:52;;;;;;;3.53;1.10;;;21.60;70.60;;;;;;10414215;28;20065;-56
2021/07/06 23:02:53;;;;;;;3.10;1.30;;;21.60;70.60;;;;;;10414576;28;20061;-55
2021/07/06 23:07:54;;;;;;;3.30;1.05;;;21.60;70.60;;;;;;10399605;28;20096;-55
2021/07/06 23:12:54;;;;;;;1.65;1.10;;;21.60;70.60;;;;;;10414124;28;20057;-54
2021/07/06 23:17:55;;;;;;;2.25;1.00;;;21.60;70.60;;;;;;10413226;28;20088;-55
2021/07/06 23:22:56;;;;;;;1.30;0.88;;;21.60;70.60;;;;;;10415868;28;20501;-55
2021/07/06 23:27:57;;;;;;;2.05;1.10;;;21.60;70.50;;;;;;10399801;28;20121;-54
2021/07/06 23:33:06;;;;;;;1.42;0.90;;;21.60;70.40;;;;;;10400794;28;20029;-54
2021/07/06 23:38:07;;;;;;;1.27;0.95;;;21.60;70.40;;;;;;10412408;28;20116;-56
2021/07/06 23:43:10;;;;;;;2.25;0.80;;;21.60;70.40;;;;;;10411839;28;20454;-55
2021/07/06 23:48:10;;;;;;;1.30;0.80;;;21.60;70.40;;;;;;10413451;28;20104;-56
2021/07/06 23:53:11;;;;;;;1.63;0.70;;;21.60;70.50;;;;;;10412982;28;20152;-56
2021/07/06 23:58:12;;;;;;;2.28;0.85;;;21.50;70.40;;;;;;10413387;28;20037;-55
